Melbourne, FL (32911)

8:23 AM EST on March 02, 2015 (GMT -0500)
APRSWXNET Palm Bay FL US | Change Station
CLOSE
Current Station
Personal Weather Station
Location: Melbourne, FL
Elevation: 22 ft
Nearby Weather Stations
Active Advisory: Dense Fog Advisory

Elev 22 ft 28.04 °N, 80.70 °W | Updated 23 minutes ago

Fog
Fog
64 °F
Feels Like 64 °F
N
0
Wind Variable Wind from East
Gusts 0.0 mph

Today
High -- | Low -- °F
--% Chance of Precip.
Yesterday
High -- | Low -- °F
Precip. -- in
6:46 AM 6:23 PM
Waxing Gibbous, 91% visible
Pressure 30.30 in
Visibility 0.2 miles
Clouds
Dew Point 64 °F
Humidity 100%
Rainfall 0.13 in
Snow Depth Not available.
UV Not available.
Pollen 9.20 out of 12
Air Quality Not available.
Flu Activity Not available.
METAR KMLB 021253Z 36006KT M1/4SM FG VV002 18/18 A3030 RMK AO2 SLP261 T01780178

More Conditions Fewer Conditions

Pressure 30.30 in
Visibility 0.2 miles
Clouds
Dew Point 64 °F
Humidity 100%
Rainfall 0.13 in
Snow Depth Not available.
UV Not available.
Pollen 9.20 out of 12
Air Quality Not available.
Flu Activity Not available.
METAR KMLB 021253Z 36006KT M1/4SM FG VV002 18/18 A3030 RMK AO2 SLP261 T01780178

More Conditions Fewer Conditions

10-Day Weather Forecast

Almanac

Astronomy

Mar. 02, 2015 Rise Set
Actual Time
Civil Twilight
Nautical Twilight
Astronomical Twilight
Moon
Length of Visible Light
Length of Day
Tomorrow will be .
, % of the Moon is Illuminated

Today's Extremes

State Highs State Lows

Community

WunderPhotos

Upload Photos

1,801,781 photos uploaded!

WunderBlogs® & News

Nearby

Air Quality

  Air Quality AQ Index Pollutant
Not available.

Snow Depth

Station Depth Elevation

Earthquake Activity

City Distance Mag. Time & Date
Minimum magnitude displayed is 2.5.

Coastal Water Temperatures

Place Temperature

Nearby Weather Stations

Dense Fog Advisory
Statement as of 7:16 AM EST on March 02, 2015

... Dense fog advisory remains in effect until 9 am EST this
morning...

* visibility... visibilities will be reduced to a quarter mile or
less at times in areas of fog this morning.

* Impacts... areas of dense fog will make driving conditions
locally hazardous on area roadways.

Precautionary/preparedness actions...

A dense fog advisory means visibilities will frequently be
reduced to less than one quarter mile. If driving... slow down...
use your headlights... and leave plenty of distance between your
vehicle and the one ahead of you.